sensor_id;sensor_type;location;lat;lon;timestamp;temperature;humidity
73133;DHT22;61320;52.008;4.530;2023-08-30T00:00:11;16.52;72.47
73133;DHT22;61320;52.008;4.530;2023-08-30T00:02:37;16.53;72.65
73133;DHT22;61320;52.008;4.530;2023-08-30T00:05:04;16.56;73.10
73133;DHT22;61320;52.008;4.530;2023-08-30T00:07:30;16.56;72.21
73133;DHT22;61320;52.008;4.530;2023-08-30T00:09:57;16.57;72.89
73133;DHT22;61320;52.008;4.530;2023-08-30T00:12:23;16.62;72.37
73133;DHT22;61320;52.008;4.530;2023-08-30T00:14:48;16.62;73.28
73133;DHT22;61320;52.008;4.530;2023-08-30T00:17:14;16.67;72.55
73133;DHT22;61320;52.008;4.530;2023-08-30T00:19:40;16.66;71.88
73133;DHT22;61320;52.008;4.530;2023-08-30T00:22:05;16.66;72.54
73133;DHT22;61320;52.008;4.530;2023-08-30T00:24:33;16.72;72.26
73133;DHT22;61320;52.008;4.530;2023-08-30T00:26:58;16.72;71.91
73133;DHT22;61320;52.008;4.530;2023-08-30T00:29:24;16.76;72.06
73133;DHT22;61320;52.008;4.530;2023-08-30T00:31:49;16.77;72.07
73133;DHT22;61320;52.008;4.530;2023-08-30T00:34:15;16.81;71.39
73133;DHT22;61320;52.008;4.530;2023-08-30T00:36:40;16.79;72.06
73133;DHT22;61320;52.008;4.530;2023-08-30T00:39:06;16.81;71.87
73133;DHT22;61320;52.008;4.530;2023-08-30T00:41:31;16.87;71.13
73133;DHT22;61320;52.008;4.530;2023-08-30T00:43:57;16.85;72.29
73133;DHT22;61320;52.008;4.530;2023-08-30T00:46:23;16.90;72.08
73133;DHT22;61320;52.008;4.530;2023-08-30T00:48:48;16.91;71.40
73133;DHT22;61320;52.008;4.530;2023-08-30T00:51:14;16.95;70.79
73133;DHT22;61320;52.008;4.530;2023-08-30T00:53:39;16.95;71.27
73133;DHT22;61320;52.008;4.530;2023-08-30T00:56:05;16.94;70.48
73133;DHT22;61320;52.008;4.530;2023-08-30T00:58:31;16.94;71.37
73133;DHT22;61320;52.008;4.530;2023-08-30T01:00:57;16.91;71.00
73133;DHT22;61320;52.008;4.530;2023-08-30T01:03:23;16.95;71.22
73133;DHT22;61320;52.008;4.530;2023-08-30T01:05:49;16.97;71.43
73133;DHT22;61320;52.008;4.530;2023-08-30T01:08:14;17.04;70.84
73133;DHT22;61320;52.008;4.530;2023-08-30T01:10:50;17.01;71.47
73133;DHT22;61320;52.008;4.530;2023-08-30T01:13:19;17.06;70.43
73133;DHT22;61320;52.008;4.530;2023-08-30T01:15:51;17.03;71.50
73133;DHT22;61320;52.008;4.530;2023-08-30T01:18:18;17.03;70.75
73133;DHT22;61320;52.008;4.530;2023-08-30T01:20:47;17.01;70.37
73133;DHT22;61320;52.008;4.530;2023-08-30T01:24:09;17.00;70.48
73133;DHT22;61320;52.008;4.530;2023-08-30T01:26:20;16.95;71.02
73133;DHT22;61320;52.008;4.530;2023-08-30T01:28:51;16.97;71.79
73133;DHT22;61320;52.008;4.530;2023-08-30T01:31:19;17.03;71.42
73133;DHT22;61320;52.008;4.530;2023-08-30T01:33:45;17.04;71.22
73133;DHT22;61320;52.008;4.530;2023-08-30T01:36:12;17.06;71.35
73133;DHT22;61320;52.008;4.530;2023-08-30T01:38:39;17.04;71.40
73133;DHT22;61320;52.008;4.530;2023-08-30T01:41:04;17.06;71.00
73133;DHT22;61320;52.008;4.530;2023-08-30T01:43:31;17.03;71.28
73133;DHT22;61320;52.008;4.530;2023-08-30T01:45:59;17.03;71.35
73133;DHT22;61320;52.008;4.530;2023-08-30T01:48:27;17.06;71.64
73133;DHT22;61320;52.008;4.530;2023-08-30T01:50:54;17.07;72.35
73133;DHT22;61320;52.008;4.530;2023-08-30T01:53:24;17.12;72.05
73133;DHT22;61320;52.008;4.530;2023-08-30T01:55:50;17.12;71.94
73133;DHT22;61320;52.008;4.530;2023-08-30T01:58:16;17.07;71.49
73133;DHT22;61320;52.008;4.530;2023-08-30T02:00:41;17.14;71.74
73133;DHT22;61320;52.008;4.530;2023-08-30T02:03:11;17.11;71.49
73133;DHT22;61320;52.008;4.530;2023-08-30T02:05:42;17.06;71.89
73133;DHT22;61320;52.008;4.530;2023-08-30T02:08:16;17.10;71.83
73133;DHT22;61320;52.008;4.530;2023-08-30T02:10:51;17.10;71.56
73133;DHT22;61320;52.008;4.530;2023-08-30T02:13:22;17.08;71.93
73133;DHT22;61320;52.008;4.530;2023-08-30T02:15:52;17.10;72.27
73133;DHT22;61320;52.008;4.530;2023-08-30T02:18:19;17.12;72.97
73133;DHT22;61320;52.008;4.530;2023-08-30T02:20:46;17.14;72.67
73133;DHT22;61320;52.008;4.530;2023-08-30T02:23:12;17.12;71.05
73133;DHT22;61320;52.008;4.530;2023-08-30T02:25:37;17.06;72.43
73133;DHT22;61320;52.008;4.530;2023-08-30T02:28:03;17.12;72.13
73133;DHT22;61320;52.008;4.530;2023-08-30T02:30:29;17.17;71.83
73133;DHT22;61320;52.008;4.530;2023-08-30T02:32:54;17.12;72.03
73133;DHT22;61320;52.008;4.530;2023-08-30T02:35:20;17.12;71.66
73133;DHT22;61320;52.008;4.530;2023-08-30T02:37:45;17.14;71.96
73133;DHT22;61320;52.008;4.530;2023-08-30T02:40:11;17.17;72.21
73133;DHT22;61320;52.008;4.530;2023-08-30T02:42:36;17.15;72.10
73133;DHT22;61320;52.008;4.530;2023-08-30T02:45:02;17.17;72.17
73133;DHT22;61320;52.008;4.530;2023-08-30T02:47:28;17.17;71.69
73133;DHT22;61320;52.008;4.530;2023-08-30T02:49:53;17.14;72.10
73133;DHT22;61320;52.008;4.530;2023-08-30T03:48:17;16.08;74.22
73133;DHT22;61320;52.008;4.530;2023-08-30T03:50:43;16.05;73.75
73133;DHT22;61320;52.008;4.530;2023-08-30T03:57:59;15.91;74.33
73133;DHT22;61320;52.008;4.530;2023-08-30T04:00:25;15.95;73.79
73133;DHT22;61320;52.008;4.530;2023-08-30T04:05:15;15.85;74.20
73133;DHT22;61320;52.008;4.530;2023-08-30T04:07:41;15.83;74.16
73133;DHT22;61320;52.008;4.530;2023-08-30T04:10:07;15.83;74.20
73133;DHT22;61320;52.008;4.530;2023-08-30T04:12:33;15.83;74.25
73133;DHT22;61320;52.008;4.530;2023-08-30T04:15:01;15.78;73.87
73133;DHT22;61320;52.008;4.530;2023-08-30T04:17:27;15.74;74.23
73133;DHT22;61320;52.008;4.530;2023-08-30T04:19:52;15.71;73.88
73133;DHT22;61320;52.008;4.530;2023-08-30T04:22:18;15.68;73.97
73133;DHT22;61320;52.008;4.530;2023-08-30T04:24:45;15.66;74.49
73133;DHT22;61320;52.008;4.530;2023-08-30T04:27:10;15.67;74.01
73133;DHT22;61320;52.008;4.530;2023-08-30T04:29:36;15.66;73.82
73133;DHT22;61320;52.008;4.530;2023-08-30T04:32:01;15.66;74.02
73133;DHT22;61320;52.008;4.530;2023-08-30T04:34:27;15.64;73.71
73133;DHT22;61320;52.008;4.530;2023-08-30T04:36:52;15.61;73.49
73133;DHT22;61320;52.008;4.530;2023-08-30T04:39:18;15.61;74.11
73133;DHT22;61320;52.008;4.530;2023-08-30T04:41:44;15.68;73.95
73133;DHT22;61320;52.008;4.530;2023-08-30T04:44:10;15.68;74.40
73133;DHT22;61320;52.008;4.530;2023-08-30T04:46:35;15.67;74.44
73133;DHT22;61320;52.008;4.530;2023-08-30T04:49:01;15.70;73.75
73133;DHT22;61320;52.008;4.530;2023-08-30T04:51:26;15.68;74.13
73133;DHT22;61320;52.008;4.530;2023-08-30T04:53:52;15.70;73.87
73133;DHT22;61320;52.008;4.530;2023-08-30T04:56:18;15.71;74.61
73133;DHT22;61320;52.008;4.530;2023-08-30T04:58:44;15.73;74.78
73133;DHT22;61320;52.008;4.530;2023-08-30T05:01:10;15.74;75.29
73133;DHT22;61320;52.008;4.530;2023-08-30T05:03:36;15.67;76.22
73133;DHT22;61320;52.008;4.530;2023-08-30T05:06:02;15.56;77.21
73133;DHT22;61320;52.008;4.530;2023-08-30T05:08:27;15.47;78.32
73133;DHT22;61320;52.008;4.530;2023-08-30T05:10:54;15.35;80.21
73133;DHT22;61320;52.008;4.530;2023-08-30T05:13:19;15.25;81.49
73133;DHT22;61320;52.008;4.530;2023-08-30T05:15:45;15.10;81.47
73133;DHT22;61320;52.008;4.530;2023-08-30T05:18:10;14.98;82.86
73133;DHT22;61320;52.008;4.530;2023-08-30T05:20:36;14.92;83.62
73133;DHT22;61320;52.008;4.530;2023-08-30T05:23:02;14.84;84.13
73133;DHT22;61320;52.008;4.530;2023-08-30T05:25:28;14.81;84.98
73133;DHT22;61320;52.008;4.530;2023-08-30T05:27:54;14.79;85.67
73133;DHT22;61320;52.008;4.530;2023-08-30T05:30:22;14.74;85.92
73133;DHT22;61320;52.008;4.530;2023-08-30T05:32:48;14.64;86.63
73133;DHT22;61320;52.008;4.530;2023-08-30T05:35:13;14.63;87.34
73133;DHT22;61320;52.008;4.530;2023-08-30T05:37:39;14.57;87.76
73133;DHT22;61320;52.008;4.530;2023-08-30T05:40:05;14.52;87.83
73133;DHT22;61320;52.008;4.530;2023-08-30T05:42:30;14.44;88.19
73133;DHT22;61320;52.008;4.530;2023-08-30T05:44:56;14.45;88.52
73133;DHT22;61320;52.008;4.530;2023-08-30T05:47:21;14.51;88.40
73133;DHT22;61320;52.008;4.530;2023-08-30T05:49:47;14.47;88.42
73133;DHT22;61320;52.008;4.530;2023-08-30T05:52:14;14.44;88.73
73133;DHT22;61320;52.008;4.530;2023-08-30T05:54:41;14.48;88.72
73133;DHT22;61320;52.008;4.530;2023-08-30T05:57:08;14.52;88.89
73133;DHT22;61320;52.008;4.530;2023-08-30T05:59:40;14.57;88.75
73133;DHT22;61320;52.008;4.530;2023-08-30T06:02:06;14.57;88.93
73133;DHT22;61320;52.008;4.530;2023-08-30T06:04:31;14.61;88.98
73133;DHT22;61320;52.008;4.530;2023-08-30T06:06:57;14.65;88.74
73133;DHT22;61320;52.008;4.530;2023-08-30T06:09:23;14.64;88.86
73133;DHT22;61320;52.008;4.530;2023-08-30T06:11:48;14.65;88.77
73133;DHT22;61320;52.008;4.530;2023-08-30T06:14:14;14.68;88.83
73133;DHT22;61320;52.008;4.530;2023-08-30T06:16:42;14.68;88.85
73133;DHT22;61320;52.008;4.530;2023-08-30T06:19:10;14.72;88.79
73133;DHT22;61320;52.008;4.530;2023-08-30T06:21:36;14.75;89.01
73133;DHT22;61320;52.008;4.530;2023-08-30T06:24:02;14.82;89.06
73133;DHT22;61320;52.008;4.530;2023-08-30T06:26:28;14.88;89.03
73133;DHT22;61320;52.008;4.530;2023-08-30T06:28:53;14.91;88.74
73133;DHT22;61320;52.008;4.530;2023-08-30T06:31:19;14.91;88.58
73133;DHT22;61320;52.008;4.530;2023-08-30T06:33:44;14.86;88.68
73133;DHT22;61320;52.008;4.530;2023-08-30T06:36:10;14.89;88.85
73133;DHT22;61320;52.008;4.530;2023-08-30T06:38:37;14.91;88.80
73133;DHT22;61320;52.008;4.530;2023-08-30T06:41:02;14.89;88.89
73133;DHT22;61320;52.008;4.530;2023-08-30T06:43:28;14.92;88.97
73133;DHT22;61320;52.008;4.530;2023-08-30T06:45:53;14.92;89.18
73133;DHT22;61320;52.008;4.530;2023-08-30T06:48:19;14.93;89.32
73133;DHT22;61320;52.008;4.530;2023-08-30T06:50:44;14.96;89.17
73133;DHT22;61320;52.008;4.530;2023-08-30T06:53:10;14.96;89.18
73133;DHT22;61320;52.008;4.530;2023-08-30T06:55:35;15.00;89.41
73133;DHT22;61320;52.008;4.530;2023-08-30T06:58:02;15.00;89.21
73133;DHT22;61320;52.008;4.530;2023-08-30T07:00:28;15.05;89.08
73133;DHT22;61320;52.008;4.530;2023-08-30T07:02:54;15.09;89.09
73133;DHT22;61320;52.008;4.530;2023-08-30T07:05:21;15.07;89.09
73133;DHT22;61320;52.008;4.530;2023-08-30T07:07:47;15.07;88.47
73133;DHT22;61320;52.008;4.530;2023-08-30T07:10:12;15.07;88.74
73133;DHT22;61320;52.008;4.530;2023-08-30T07:12:38;15.05;89.12
73133;DHT22;61320;52.008;4.530;2023-08-30T07:15:03;15.06;89.08
73133;DHT22;61320;52.008;4.530;2023-08-30T07:17:29;15.12;89.30
73133;DHT22;61320;52.008;4.530;2023-08-30T07:19:55;15.15;89.18
73133;DHT22;61320;52.008;4.530;2023-08-30T07:22:20;15.22;89.18
73133;DHT22;61320;52.008;4.530;2023-08-30T07:24:46;15.26;88.90
73133;DHT22;61320;52.008;4.530;2023-08-30T07:27:11;15.20;88.93
73133;DHT22;61320;52.008;4.530;2023-08-30T07:29:40;15.20;88.89
73133;DHT22;61320;52.008;4.530;2023-08-30T07:32:07;15.26;88.97
73133;DHT22;61320;52.008;4.530;2023-08-30T07:34:33;15.30;89.13
73133;DHT22;61320;52.008;4.530;2023-08-30T07:36:58;15.39;89.37
73133;DHT22;61320;52.008;4.530;2023-08-30T07:39:24;15.43;89.19
73133;DHT22;61320;52.008;4.530;2023-08-30T07:41:49;15.46;88.71
73133;DHT22;61320;52.008;4.530;2023-08-30T07:44:15;15.42;89.12
73133;DHT22;61320;52.008;4.530;2023-08-30T07:46:41;15.43;88.49
73133;DHT22;61320;52.008;4.530;2023-08-30T07:49:07;15.42;89.02
73133;DHT22;61320;52.008;4.530;2023-08-30T07:51:32;15.42;88.03
73133;DHT22;61320;52.008;4.530;2023-08-30T07:53:58;15.37;88.71
73133;DHT22;61320;52.008;4.530;2023-08-30T07:56:23;15.36;88.97
73133;DHT22;61320;52.008;4.530;2023-08-30T07:58:49;15.36;88.94
73133;DHT22;61320;52.008;4.530;2023-08-30T08:01:15;15.39;88.90
73133;DHT22;61320;52.008;4.530;2023-08-30T08:03:40;15.37;88.47
73133;DHT22;61320;52.008;4.530;2023-08-30T08:06:06;15.39;88.86
73133;DHT22;61320;52.008;4.530;2023-08-30T08:08:32;15.43;89.17
73133;DHT22;61320;52.008;4.530;2023-08-30T08:10:59;15.50;89.10
73133;DHT22;61320;52.008;4.530;2023-08-30T08:13:25;15.49;88.90
73133;DHT22;61320;52.008;4.530;2023-08-30T08:15:50;15.54;89.18
73133;DHT22;61320;52.008;4.530;2023-08-30T08:18:16;15.56;88.98
73133;DHT22;61320;52.008;4.530;2023-08-30T08:20:42;15.60;89.25
73133;DHT22;61320;52.008;4.530;2023-08-30T08:23:08;15.61;88.65
73133;DHT22;61320;52.008;4.530;2023-08-30T08:25:34;15.63;89.08
73133;DHT22;61320;52.008;4.530;2023-08-30T08:27:59;15.68;89.09
73133;DHT22;61320;52.008;4.530;2023-08-30T08:30:24;15.77;89.44
73133;DHT22;61320;52.008;4.530;2023-08-30T08:32:50;15.84;88.85
73133;DHT22;61320;52.008;4.530;2023-08-30T08:35:16;15.85;89.08
73133;DHT22;61320;52.008;4.530;2023-08-30T08:37:41;15.90;89.01
73133;DHT22;61320;52.008;4.530;2023-08-30T08:40:08;15.90;88.54
73133;DHT22;61320;52.008;4.530;2023-08-30T08:42:37;15.97;89.03
73133;DHT22;61320;52.008;4.530;2023-08-30T08:45:04;16.01;89.56
73133;DHT22;61320;52.008;4.530;2023-08-30T08:49:56;16.25;90.24
73133;DHT22;61320;52.008;4.530;2023-08-30T08:54:49;16.46;90.24
73133;DHT22;61320;52.008;4.530;2023-08-30T08:57:15;16.60;89.58
73133;DHT22;61320;52.008;4.530;2023-08-30T08:59:40;16.67;89.79
73133;DHT22;61320;52.008;4.530;2023-08-30T09:02:06;16.74;89.92
73133;DHT22;61320;52.008;4.530;2023-08-30T09:04:33;16.93;89.67
73133;DHT22;61320;52.008;4.530;2023-08-30T09:06:59;17.10;89.64
73133;DHT22;61320;52.008;4.530;2023-08-30T09:09:26;17.20;89.25
73133;DHT22;61320;52.008;4.530;2023-08-30T09:11:51;17.22;88.54
73133;DHT22;61320;52.008;4.530;2023-08-30T09:14:17;17.18;88.16
73133;DHT22;61320;52.008;4.530;2023-08-30T09:16:59;17.15;88.36
73133;DHT22;61320;52.008;4.530;2023-08-30T09:19:29;17.25;89.00
73133;DHT22;61320;52.008;4.530;2023-08-30T09:21:57;17.41;89.15
73133;DHT22;61320;52.008;4.530;2023-08-30T09:24:23;17.53;88.53
73133;DHT22;61320;52.008;4.530;2023-08-30T09:26:53;17.62;88.59
73133;DHT22;61320;52.008;4.530;2023-08-30T09:29:21;17.68;88.35
73133;DHT22;61320;52.008;4.530;2023-08-30T09:31:51;17.73;87.31
73133;DHT22;61320;52.008;4.530;2023-08-30T10:16:50;17.71;84.71
73133;DHT22;61320;52.008;4.530;2023-08-30T10:30:03;17.55;85.59
73133;DHT22;61320;52.008;4.530;2023-08-30T10:33:14;17.55;86.11
73133;DHT22;61320;52.008;4.530;2023-08-30T10:35:48;17.59;86.10
73133;DHT22;61320;52.008;4.530;2023-08-30T10:38:29;17.66;85.09
73133;DHT22;61320;52.008;4.530;2023-08-30T10:40:55;17.69;85.55
73133;DHT22;61320;52.008;4.530;2023-08-30T10:43:34;17.83;84.24
73133;DHT22;61320;52.008;4.530;2023-08-30T10:46:01;17.89;84.49
73133;DHT22;61320;52.008;4.530;2023-08-30T10:48:35;17.99;84.58
73133;DHT22;61320;52.008;4.530;2023-08-30T10:51:01;18.17;84.42
73133;DHT22;61320;52.008;4.530;2023-08-30T10:56:11;19.10;84.86
73133;DHT22;61320;52.008;4.530;2023-08-30T10:58:44;19.66;84.03
73133;DHT22;61320;52.008;4.530;2023-08-30T11:01:10;20.42;83.35
73133;DHT22;61320;52.008;4.530;2023-08-30T11:03:41;20.97;80.66
73133;DHT22;61320;52.008;4.530;2023-08-30T11:06:07;21.03;77.44
73133;DHT22;61320;52.008;4.530;2023-08-30T11:11:06;20.64;78.79
73133;DHT22;61320;52.008;4.530;2023-08-30T11:13:34;20.47;78.42
73133;DHT22;61320;52.008;4.530;2023-08-30T11:16:03;20.28;77.76
73133;DHT22;61320;52.008;4.530;2023-08-30T11:18:30;20.19;79.74
73133;DHT22;61320;52.008;4.530;2023-08-30T11:21:00;20.14;80.18
73133;DHT22;61320;52.008;4.530;2023-08-30T11:23:26;19.99;78.80
73133;DHT22;61320;52.008;4.530;2023-08-30T11:25:52;19.85;79.29
73133;DHT22;61320;52.008;4.530;2023-08-30T11:28:25;19.67;80.34
73133;DHT22;61320;52.008;4.530;2023-08-30T11:30:54;20.21;79.69
73133;DHT22;61320;52.008;4.530;2023-08-30T11:33:20;20.88;78.42
73133;DHT22;61320;52.008;4.530;2023-08-30T11:35:49;21.45;78.30
73133;DHT22;61320;52.008;4.530;2023-08-30T11:38:15;21.82;75.59
73133;DHT22;61320;52.008;4.530;2023-08-30T11:40:41;21.99;74.99
73133;DHT22;61320;52.008;4.530;2023-08-30T11:43:07;22.17;74.46
73133;DHT22;61320;52.008;4.530;2023-08-30T11:48:02;22.37;71.91
73133;DHT22;61320;52.008;4.530;2023-08-30T11:50:29;22.72;67.50
73133;DHT22;61320;52.008;4.530;2023-08-30T11:52:55;22.84;67.41
73133;DHT22;61320;52.008;4.530;2023-08-30T11:55:22;22.51;70.01
73133;DHT22;61320;52.008;4.530;2023-08-30T11:57:51;22.20;73.41
73133;DHT22;61320;52.008;4.530;2023-08-30T12:00:20;22.78;74.96
73133;DHT22;61320;52.008;4.530;2023-08-30T12:02:46;22.79;69.40
73133;DHT22;61320;52.008;4.530;2023-08-30T12:05:13;22.30;68.27
73133;DHT22;61320;52.008;4.530;2023-08-30T12:07:40;21.82;71.72
73133;DHT22;61320;52.008;4.530;2023-08-30T12:10:07;21.38;71.13
73133;DHT22;61320;52.008;4.530;2023-08-30T12:17:27;19.73;80.53
73133;DHT22;61320;52.008;4.530;2023-08-30T12:19:57;19.37;81.69
73133;DHT22;61320;52.008;4.530;2023-08-30T12:22:22;19.17;82.46
73133;DHT22;61320;52.008;4.530;2023-08-30T12:29:39;18.73;84.16
73133;DHT22;61320;52.008;4.530;2023-08-30T12:32:06;18.72;84.70
73133;DHT22;61320;52.008;4.530;2023-08-30T12:34:31;19.09;84.79
73133;DHT22;61320;52.008;4.530;2023-08-30T12:36:57;19.06;83.96
73133;DHT22;61320;52.008;4.530;2023-08-30T12:39:22;19.02;84.12
73133;DHT22;61320;52.008;4.530;2023-08-30T12:41:48;18.98;84.66
73133;DHT22;61320;52.008;4.530;2023-08-30T12:44:13;19.03;84.52
73133;DHT22;61320;52.008;4.530;2023-08-30T12:46:39;19.08;84.35
73133;DHT22;61320;52.008;4.530;2023-08-30T12:49:05;19.05;83.94
73133;DHT22;61320;52.008;4.530;2023-08-30T12:51:30;19.00;83.77
73133;DHT22;61320;52.008;4.530;2023-08-30T12:53:56;18.96;83.51
73133;DHT22;61320;52.008;4.530;2023-08-30T12:56:21;18.96;82.08
73133;DHT22;61320;52.008;4.530;2023-08-30T12:58:47;19.00;81.86
73133;DHT22;61320;52.008;4.530;2023-08-30T13:01:12;18.95;81.09
73133;DHT22;61320;52.008;4.530;2023-08-30T13:03:38;18.88;79.74
73133;DHT22;61320;52.008;4.530;2023-08-30T13:06:03;18.92;81.06
73133;DHT22;61320;52.008;4.530;2023-08-30T13:08:29;18.92;80.95
73133;DHT22;61320;52.008;4.530;2023-08-30T13:10:55;18.95;79.94
73133;DHT22;61320;52.008;4.530;2023-08-30T13:13:20;18.98;79.94
73133;DHT22;61320;52.008;4.530;2023-08-30T13:15:47;19.03;81.31
73133;DHT22;61320;52.008;4.530;2023-08-30T13:18:14;19.16;80.38
73133;DHT22;61320;52.008;4.530;2023-08-30T13:20:41;19.06;79.23
73133;DHT22;61320;52.008;4.530;2023-08-30T13:23:06;19.06;79.68
73133;DHT22;61320;52.008;4.530;2023-08-30T13:25:31;19.10;80.74
73133;DHT22;61320;52.008;4.530;2023-08-30T13:27:57;19.12;80.19
73133;DHT22;61320;52.008;4.530;2023-08-30T13:30:22;19.13;80.13
73133;DHT22;61320;52.008;4.530;2023-08-30T13:32:48;19.09;79.68
73133;DHT22;61320;52.008;4.530;2023-08-30T13:35:13;19.02;80.26
73133;DHT22;61320;52.008;4.530;2023-08-30T13:37:39;19.03;81.60
73133;DHT22;61320;52.008;4.530;2023-08-30T13:40:05;19.06;80.79
73133;DHT22;61320;52.008;4.530;2023-08-30T13:42:32;18.94;80.00
73133;DHT22;61320;52.008;4.530;2023-08-30T13:44:58;18.94;80.82
73133;DHT22;61320;52.008;4.530;2023-08-30T13:47:23;18.95;81.26
73133;DHT22;61320;52.008;4.530;2023-08-30T13:49:49;18.91;80.13
73133;DHT22;61320;52.008;4.530;2023-08-30T13:52:15;18.87;80.34
73133;DHT22;61320;52.008;4.530;2023-08-30T13:54:44;18.78;78.38
73133;DHT22;61320;52.008;4.530;2023-08-30T13:57:09;18.62;78.23
73133;DHT22;61320;52.008;4.530;2023-08-30T13:59:35;18.57;79.02
73133;DHT22;61320;52.008;4.530;2023-08-30T14:02:04;18.52;78.74
73133;DHT22;61320;52.008;4.530;2023-08-30T14:04:30;18.40;78.78
73133;DHT22;61320;52.008;4.530;2023-08-30T14:06:58;18.38;79.32
73133;DHT22;61320;52.008;4.530;2023-08-30T14:09:23;18.26;79.59
73133;DHT22;61320;52.008;4.530;2023-08-30T14:11:49;18.18;80.08
73133;DHT22;61320;52.008;4.530;2023-08-30T14:16:40;17.92;80.01
73133;DHT22;61320;52.008;4.530;2023-08-30T14:21:32;17.78;80.03
73133;DHT22;61320;52.008;4.530;2023-08-30T14:23:57;17.62;81.55
73133;DHT22;61320;52.008;4.530;2023-08-30T14:26:23;17.58;82.31
73133;DHT22;61320;52.008;4.530;2023-08-30T14:28:48;17.55;82.89
73133;DHT22;61320;52.008;4.530;2023-08-30T14:31:17;17.59;82.69
73133;DHT22;61320;52.008;4.530;2023-08-30T14:33:44;17.63;83.16
73133;DHT22;61320;52.008;4.530;2023-08-30T14:36:13;17.69;82.37
73133;DHT22;61320;52.008;4.530;2023-08-30T14:38:39;17.72;82.08
73133;DHT22;61320;52.008;4.530;2023-08-30T14:41:06;17.69;81.61
73133;DHT22;61320;52.008;4.530;2023-08-30T14:43:32;17.82;82.87
73133;DHT22;61320;52.008;4.530;2023-08-30T14:46:06;17.90;81.99
73133;DHT22;61320;52.008;4.530;2023-08-30T14:48:34;18.09;82.60
73133;DHT22;61320;52.008;4.530;2023-08-30T14:51:01;18.20;79.39
73133;DHT22;61320;52.008;4.530;2023-08-30T14:53:30;18.21;79.65
73133;DHT22;61320;52.008;4.530;2023-08-30T14:55:59;18.26;79.27
73133;DHT22;61320;52.008;4.530;2023-08-30T14:58:24;18.26;79.50
73133;DHT22;61320;52.008;4.530;2023-08-30T15:00:50;18.33;79.72
73133;DHT22;61320;52.008;4.530;2023-08-30T15:03:36;18.31;79.64
73133;DHT22;61320;52.008;4.530;2023-08-30T15:06:01;18.34;79.31
73133;DHT22;61320;52.008;4.530;2023-08-30T15:08:28;18.40;79.69
73133;DHT22;61320;52.008;4.530;2023-08-30T15:10:54;18.36;78.26
73133;DHT22;61320;52.008;4.530;2023-08-30T15:13:20;18.33;77.41
73133;DHT22;61320;52.008;4.530;2023-08-30T15:15:46;18.27;79.08
73133;DHT22;61320;52.008;4.530;2023-08-30T15:18:12;18.30;78.83
73133;DHT22;61320;52.008;4.530;2023-08-30T15:20:37;18.40;80.06
73133;DHT22;61320;52.008;4.530;2023-08-30T15:23:03;18.47;77.73
73133;DHT22;61320;52.008;4.530;2023-08-30T15:25:28;18.50;78.69
73133;DHT22;61320;52.008;4.530;2023-08-30T15:27:54;18.54;77.38
73133;DHT22;61320;52.008;4.530;2023-08-30T15:30:19;18.55;78.34
73133;DHT22;61320;52.008;4.530;2023-08-30T15:32:45;18.61;76.60
73133;DHT22;61320;52.008;4.530;2023-08-30T15:35:11;18.65;76.86
73133;DHT22;61320;52.008;4.530;2023-08-30T15:37:37;18.73;76.41
73133;DHT22;61320;52.008;4.530;2023-08-30T15:40:04;18.81;75.10
73133;DHT22;61320;52.008;4.530;2023-08-30T15:42:33;18.82;77.17
73133;DHT22;61320;52.008;4.530;2023-08-30T15:45:03;18.82;76.39
73133;DHT22;61320;52.008;4.530;2023-08-30T15:47:32;18.82;76.55
73133;DHT22;61320;52.008;4.530;2023-08-30T15:49:58;18.87;76.72
73133;DHT22;61320;52.008;4.530;2023-08-30T15:52:23;18.79;75.69
73133;DHT22;61320;52.008;4.530;2023-08-30T15:54:49;18.71;77.06
73133;DHT22;61320;52.008;4.530;2023-08-30T15:57:14;18.69;77.16
73133;DHT22;61320;52.008;4.530;2023-08-30T15:59:39;18.71;77.46
73133;DHT22;61320;52.008;4.530;2023-08-30T16:02:05;18.68;77.58
73133;DHT22;61320;52.008;4.530;2023-08-30T16:04:30;18.59;75.77
73133;DHT22;61320;52.008;4.530;2023-08-30T16:06:56;18.45;74.71
73133;DHT22;61320;52.008;4.530;2023-08-30T16:14:12;18.24;75.87
73133;DHT22;61320;52.008;4.530;2023-08-30T16:16:38;18.23;75.89
73133;DHT22;61320;52.008;4.530;2023-08-30T16:19:04;18.18;75.88
73133;DHT22;61320;52.008;4.530;2023-08-30T16:21:29;18.10;75.58
73133;DHT22;61320;52.008;4.530;2023-08-30T16:23:56;17.97;75.81
73133;DHT22;61320;52.008;4.530;2023-08-30T16:26:21;17.92;77.23
73133;DHT22;61320;52.008;4.530;2023-08-30T16:28:47;17.87;76.12
73133;DHT22;61320;52.008;4.530;2023-08-30T16:31:13;17.82;76.25
73133;DHT22;61320;52.008;4.530;2023-08-30T16:33:39;17.79;76.93
73133;DHT22;61320;52.008;4.530;2023-08-30T16:36:04;17.83;76.57
73133;DHT22;61320;52.008;4.530;2023-08-30T16:38:30;17.83;74.83
73133;DHT22;61320;52.008;4.530;2023-08-30T16:40:56;17.80;76.84
73133;DHT22;61320;52.008;4.530;2023-08-30T16:43:29;17.78;76.72
73133;DHT22;61320;52.008;4.530;2023-08-30T16:45:55;17.78;74.58
73133;DHT22;61320;52.008;4.530;2023-08-30T16:48:23;17.69;76.01
73133;DHT22;61320;52.008;4.530;2023-08-30T16:50:49;17.65;76.58
73133;DHT22;61320;52.008;4.530;2023-08-30T16:53:15;17.58;75.02
73133;DHT22;61320;52.008;4.530;2023-08-30T17:00:31;17.39;76.13
73133;DHT22;61320;52.008;4.530;2023-08-30T17:02:57;17.36;76.93
73133;DHT22;61320;52.008;4.530;2023-08-30T17:05:22;17.34;76.24
73133;DHT22;61320;52.008;4.530;2023-08-30T17:07:53;17.35;75.99
73133;DHT22;61320;52.008;4.530;2023-08-30T17:10:19;17.31;76.63
73133;DHT22;61320;52.008;4.530;2023-08-30T17:12:45;17.30;76.71
73133;DHT22;61320;52.008;4.530;2023-08-30T17:15:11;17.25;75.52
73133;DHT22;61320;52.008;4.530;2023-08-30T17:17:36;17.18;75.51
73133;DHT22;61320;52.008;4.530;2023-08-30T17:20:02;17.15;75.05
73133;DHT22;61320;52.008;4.530;2023-08-30T17:22:28;17.11;76.54
73133;DHT22;61320;52.008;4.530;2023-08-30T17:24:54;17.08;75.95
73133;DHT22;61320;52.008;4.530;2023-08-30T17:27:19;17.10;76.86
73133;DHT22;61320;52.008;4.530;2023-08-30T17:29:45;17.08;76.00
73133;DHT22;61320;52.008;4.530;2023-08-30T17:32:10;17.01;76.48
73133;DHT22;61320;52.008;4.530;2023-08-30T17:34:36;16.99;76.35
73133;DHT22;61320;52.008;4.530;2023-08-30T17:37:01;17.00;77.09
73133;DHT22;61320;52.008;4.530;2023-08-30T17:39:35;16.94;76.98
73133;DHT22;61320;52.008;4.530;2023-08-30T17:42:02;16.90;76.22
73133;DHT22;61320;52.008;4.530;2023-08-30T17:44:28;16.81;73.98
73133;DHT22;61320;52.008;4.530;2023-08-30T17:49:19;16.81;77.10
73133;DHT22;61320;52.008;4.530;2023-08-30T17:51:46;16.83;77.70
73133;DHT22;61320;52.008;4.530;2023-08-30T17:54:12;16.81;77.14
73133;DHT22;61320;52.008;4.530;2023-08-30T17:56:37;16.83;76.42
73133;DHT22;61320;52.008;4.530;2023-08-30T17:59:03;16.81;77.21
73133;DHT22;61320;52.008;4.530;2023-08-30T18:01:29;16.79;77.39